Time;durP1;ratioP1;P1;durP2;ratioP2;P2;SDS_P1;SDS_P2;PMS_P1;PMS_P2;Temp;Humidity;BMP_temperature;BMP_pressure;BME280_temperature;BME280_humidity;BME280_pressure;Samples;Min_cycle;Max_cycle;Signal;HPM_P1;HPM_P2
2021/08/10 00:00:58;;;;;;;4.73;1.67;;;;;;;;;;4807387;28;20686;-78
2021/08/10 00:03:22;;;;;;;1.97;0.80;;;14.60;30.70;;;;;;4811629;28;20786;-78
2021/08/10 00:05:48;;;;;;;2.97;1.10;;;;;;;;;;4810879;28;20249;-84
2021/08/10 00:08:11;;;;;;;4.03;1.77;;;;;;;;;;4809786;28;20215;-84
2021/08/10 00:10:34;;;;;;;2.13;1.00;;;;;;;;;;4823635;28;20724;-76
2021/08/10 00:12:57;;;;;;;3.20;1.23;;;;;;;;;;4804271;28;20211;-72
2021/08/10 00:15:19;;;;;;;1.97;0.80;;;14.70;31.20;;;;;;4810941;28;20658;-73
2021/08/10 00:17:43;;;;;;;1.93;0.83;;;14.70;31.60;;;;;;4816861;28;20235;-74
2021/08/10 00:20:09;;;;;;;4.07;1.83;;;14.70;31.60;;;;;;4814664;28;20237;-73
2021/08/10 00:22:32;;;;;;;3.30;1.40;;;;;;;;;;4808230;28;20183;-78
2021/08/10 00:24:54;;;;;;;1.43;0.80;;;;;;;;;;4813130;28;20277;-73
2021/08/10 00:27:17;;;;;;;1.77;0.77;;;;;;;;;;4809556;28;20187;-73
2021/08/10 00:29:40;;;;;;;2.03;0.83;;;14.70;31.60;;;;;;4817360;28;20242;-73
2021/08/10 00:32:02;;;;;;;3.30;1.43;;;;;;;;;;4812537;28;20195;-75
2021/08/10 00:34:25;;;;;;;1.73;0.80;;;;;;;;;;4805792;28;20196;-73
2021/08/10 00:36:49;;;;;;;1.80;0.90;;;14.80;32.00;;;;;;4806098;28;20760;-74
2021/08/10 00:39:12;;;;;;;2.43;1.03;;;14.30;31.30;;;;;;4807047;28;20599;-73
2021/08/10 00:41:37;;;;;;;1.87;0.80;;;;;;;;;;4807177;28;20591;-72
2021/08/10 00:44:01;;;;;;;4.00;1.60;;;;;;;;;;4806906;28;20200;-74
2021/08/10 00:46:26;;;;;;;2.73;1.17;;;;;;;;;;4808621;28;20199;-73
2021/08/10 00:48:49;;;;;;;1.43;0.73;;;;;;;;;;4809323;28;20203;-72
2021/08/10 00:51:15;;;;;;;2.17;1.13;;;;;;;;;;4805567;28;20211;-74
2021/08/10 00:53:45;;;;;;;1.83;0.80;;;14.70;31.90;;;;;;4808545;28;20595;-75
2021/08/10 00:56:11;;;;;;;2.87;1.40;;;;;;;;;;4812351;28;20214;-73
2021/08/10 00:58:37;;;;;;;2.40;0.90;;;15.10;32.80;;;;;;4800040;28;20641;-73
2021/08/10 01:01:00;;;;;;;6.13;2.43;;;;;;;;;;4807160;28;20207;-75
2021/08/10 01:03:23;;;;;;;2.33;1.10;;;;;;;;;;4794629;28;20644;-73
2021/08/10 01:05:48;;;;;;;1.57;0.80;;;15.10;33.80;;;;;;4801183;28;20207;-80
2021/08/10 01:08:22;;;;;;;4.00;1.70;;;15.20;34.10;;;;;;4804664;28;20211;-76
2021/08/10 01:10:53;;;;;;;1.63;0.80;;;15.20;34.00;;;;;;4799502;28;20608;-72
2021/08/10 01:13:23;;;;;;;1.07;0.67;;;15.20;34.20;;;;;;4788786;28;20196;-73
2021/08/10 01:15:56;;;;;;;1.57;0.90;;;15.20;34.40;;;;;;4805667;28;20203;-76
2021/08/10 01:18:25;;;;;;;2.00;1.10;;;15.20;34.60;;;;;;4805211;28;20309;-73
2021/08/10 01:21:10;;;;;;;1.80;1.03;;;15.40;34.10;;;;;;4800722;28;20271;-74
2021/08/10 01:23:38;;;;;;;1.47;0.90;;;15.30;33.20;;;;;;4817549;28;20199;-73
2021/08/10 01:26:07;;;;;;;2.63;1.40;;;15.40;34.80;;;;;;4806830;28;20192;-73
2021/08/10 01:28:48;;;;;;;2.00;0.93;;;15.50;35.80;;;;;;4803004;28;20199;-77
2021/08/10 01:31:23;;;;;;;4.07;2.20;;;15.40;35.70;;;;;;4798997;28;20259;-73
2021/08/10 01:33:52;;;;;;;1.67;1.07;;;15.60;38.00;;;;;;4805541;28;20195;-72
2021/08/10 01:36:19;;;;;;;1.50;0.90;;;15.70;38.80;;;;;;4805474;28;20258;-75
2021/08/10 01:38:47;;;;;;;0.90;0.50;;;15.60;39.30;;;;;;4809669;28;20218;-73
2021/08/10 01:41:12;;;;;;;3.73;1.87;;;15.60;38.90;;;;;;4771580;28;20195;-73
2021/08/10 01:43:36;;;;;;;2.23;1.23;;;16.40;37.30;;;;;;4811127;28;20203;-74
2021/08/10 01:46:00;;;;;;;3.03;1.50;;;15.70;36.70;;;;;;4811642;28;20678;-73
2021/08/10 01:48:29;;;;;;;2.00;0.97;;;15.60;37.50;;;;;;4800874;28;20630;-73
2021/08/10 01:50:51;;;;;;;0.73;0.50;;;15.70;36.70;;;;;;4823196;28;20755;-73
2021/08/10 01:53:20;;;;;;;1.20;0.80;;;;;;;;;;4809496;28;20199;-75
2021/08/10 01:55:45;;;;;;;1.20;0.80;;;;;;;;;;4797214;28;20197;-73
2021/08/10 01:58:17;;;;;;;1.73;1.00;;;15.60;37.80;;;;;;4804151;28;20219;-73
2021/08/10 02:00:45;;;;;;;5.63;3.17;;;14.60;36.90;;;;;;4812315;28;20192;-73
2021/08/10 02:03:11;;;;;;;3.07;1.73;;;15.60;37.10;;;;;;4815965;28;20755;-73
2021/08/10 02:05:44;;;;;;;1.03;0.70;;;15.60;37.20;;;;;;4790218;28;20827;-73
2021/08/10 02:08:13;;;;;;;2.53;1.47;;;15.60;36.40;;;;;;4818840;28;20316;-78
2021/08/10 02:10:37;;;;;;;1.00;0.67;;;15.60;36.60;;;;;;4809785;28;20223;-83
2021/08/10 02:13:01;;;;;;;2.07;1.17;;;15.50;36.80;;;;;;4802007;28;20235;-81
2021/08/10 02:15:28;;;;;;;1.10;0.70;;;15.50;36.10;;;;;;4810837;28;20701;-84
2021/08/10 02:17:56;;;;;;;1.73;0.97;;;15.30;36.80;;;;;;4812340;28;20230;-75
2021/08/10 02:20:32;;;;;;;0.73;0.63;;;15.30;37.10;;;;;;4802530;28;20219;-74
2021/08/10 02:22:56;;;;;;;2.20;0.90;;;15.40;35.40;;;;;;4811933;28;20246;-74
2021/08/10 02:25:23;;;;;;;1.23;0.80;;;15.40;36.20;;;;;;4807804;28;20552;-74
2021/08/10 02:27:58;;;;;;;1.03;0.63;;;15.40;38.20;;;;;;4798344;28;20187;-74
2021/08/10 02:30:25;;;;;;;1.03;0.80;;;15.50;38.60;;;;;;4809478;28;20203;-78
2021/08/10 02:32:52;;;;;;;1.30;0.80;;;15.40;39.80;;;;;;4822209;28;20245;-74
2021/08/10 02:35:19;;;;;;;1.10;0.67;;;15.20;39.60;;;;;;4807910;28;20208;-74
2021/08/10 02:37:44;;;;;;;1.47;1.10;;;15.20;38.90;;;;;;4806069;28;20243;-74
2021/08/10 02:40:12;;;;;;;2.20;1.53;;;15.30;38.40;;;;;;4789350;28;20188;-78
2021/08/10 02:42:38;;;;;;;0.70;0.63;;;15.00;37.60;;;;;;4791135;28;20200;-75
2021/08/10 02:45:02;;;;;;;2.20;1.37;;;15.20;35.40;;;;;;4786651;28;20216;-73
2021/08/10 02:47:26;;;;;;;0.90;0.70;;;15.10;35.00;;;;;;4813888;28;20200;-73
2021/08/10 02:49:51;;;;;;;0.90;0.70;;;14.90;34.30;;;;;;4790857;28;20561;-76
2021/08/10 02:52:14;;;;;;;0.67;0.60;;;;;;;;;;4817099;28;20199;-81
2021/08/10 02:54:38;;;;;;;1.40;0.90;;;;;;;;;;4805717;28;20195;-73
2021/08/10 02:57:06;;;;;;;1.80;1.33;;;14.70;34.40;;;;;;4800839;28;20200;-74
2021/08/10 02:59:35;;;;;;;1.20;0.80;;;14.70;33.80;;;;;;4791426;28;20613;-77
2021/08/10 03:02:05;;;;;;;1.37;0.93;;;14.80;33.80;;;;;;4810159;28;20196;-77
2021/08/10 03:04:31;;;;;;;0.87;0.77;;;14.70;33.60;;;;;;4804868;28;20770;-78
2021/08/10 03:06:56;;;;;;;0.53;0.53;;;14.60;34.50;;;;;;4817738;28;20195;-74
2021/08/10 03:09:19;;;;;;;0.93;0.73;;;14.70;33.30;;;;;;4809138;28;20216;-78
2021/08/10 03:11:45;;;;;;;0.80;0.70;;;14.90;32.10;;;;;;4814519;28;20298;-80
2021/08/10 03:14:12;;;;;;;1.00;0.90;;;14.90;33.20;;;;;;4805091;28;20196;-81
2021/08/10 03:16:35;;;;;;;1.07;0.77;;;14.80;33.30;;;;;;4814032;28;20196;-79
2021/08/10 03:19:04;;;;;;;1.17;0.90;;;15.80;34.50;;;;;;4791821;28;20228;-83
2021/08/10 03:21:29;;;;;;;0.83;0.60;;;14.80;34.10;;;;;;4792073;28;20200;-77
2021/08/10 03:23:55;;;;;;;0.77;0.60;;;14.70;32.90;;;;;;4797917;28;20613;-84
2021/08/10 03:26:18;;;;;;;0.93;0.67;;;15.20;33.30;;;;;;4810409;28;20204;-74
2021/08/10 03:28:42;;;;;;;0.40;0.40;;;14.80;33.10;;;;;;4816200;28;20195;-77
2021/08/10 03:31:10;;;;;;;1.83;1.47;;;14.80;32.90;;;;;;4807242;28;20227;-77
2021/08/10 03:33:33;;;;;;;1.07;0.80;;;;;;;;;;4813528;28;20290;-75
2021/08/10 03:35:58;;;;;;;1.63;1.20;;;14.60;32.50;;;;;;4803795;28;20245;-77
2021/08/10 03:38:24;;;;;;;1.47;1.13;;;14.70;32.70;;;;;;4783947;28;20553;-75
2021/08/10 03:40:48;;;;;;;0.60;0.43;;;14.70;32.90;;;;;;4810343;28;20199;-81
2021/08/10 03:43:11;;;;;;;1.23;1.00;;;14.70;33.00;;;;;;4801510;28;20251;-82
2021/08/10 03:45:34;;;;;;;0.90;0.80;;;14.80;32.20;;;;;;4808351;28;20188;-75
2021/08/10 03:47:59;;;;;;;1.30;1.00;;;14.70;33.10;;;;;;4788655;28;20275;-75
2021/08/10 03:50:22;;;;;;;1.20;0.90;;;14.70;33.80;;;;;;4816167;28;20195;-78
2021/08/10 03:52:45;;;;;;;0.87;0.70;;;;;;;;;;4812157;28;20199;-75
2021/08/10 03:55:09;;;;;;;1.43;1.03;;;14.90;32.90;;;;;;4806580;28;20341;-75
2021/08/10 03:57:35;;;;;;;1.00;0.90;;;14.80;32.90;;;;;;4800801;28;20717;-75
2021/08/10 03:59:59;;;;;;;1.30;1.03;;;14.90;32.90;;;;;;4815478;28;20199;-85
2021/08/10 04:02:26;;;;;;;1.10;0.80;;;15.00;32.60;;;;;;4807609;28;20192;-87
2021/08/10 04:04:53;;;;;;;1.00;0.80;;;15.70;32.50;;;;;;4811166;28;20219;-86
2021/08/10 04:07:18;;;;;;;0.87;0.73;;;15.00;33.10;;;;;;4815456;28;20195;-85
2021/08/10 04:09:41;;;;;;;0.40;0.40;;;15.10;32.90;;;;;;4812739;28;20594;-88
2021/08/10 04:12:11;;;;;;;0.57;0.57;;;15.00;33.90;;;;;;4814733;28;20306;-84
2021/08/10 04:14:56;;;;;;;0.57;0.53;;;14.80;33.80;;;;;;4807278;28;20190;-83
2021/08/10 04:17:42;;;;;;;0.50;0.50;;;14.90;32.80;;;;;;4810925;28;20179;-85
2021/08/10 04:20:27;;;;;;;0.60;0.60;;;14.80;32.40;;;;;;4819546;28;20189;-87
2021/08/10 04:23:10;;;;;;;0.67;0.67;;;14.80;32.90;;;;;;4802340;28;20180;-86
2021/08/10 04:25:53;;;;;;;0.40;0.40;;;;;;;;;;4803958;28;20184;-82
2021/08/10 04:28:37;;;;;;;0.37;0.37;;;14.90;32.60;;;;;;4815446;28;20207;-84
2021/08/10 04:31:19;;;;;;;1.07;0.63;;;14.60;32.80;;;;;;4810951;28;20197;-85
2021/08/10 04:34:02;;;;;;;0.67;0.60;;;15.10;32.20;;;;;;4809559;28;20199;-82
2021/08/10 04:36:46;;;;;;;0.43;0.40;;;14.40;31.50;;;;;;4808444;28;20180;-87
2021/08/10 04:39:29;;;;;;;0.40;0.40;;;14.60;31.20;;;;;;4811236;28;20172;-83
2021/08/10 04:42:14;;;;;;;0.33;0.33;;;;;;;;;;4813124;28;20554;-81
2021/08/10 04:44:57;;;;;;;0.57;0.57;;;;;;;;;;4808857;28;20183;-82
2021/08/10 04:47:39;;;;;;;0.57;0.57;;;14.50;30.40;;;;;;4800437;28;20202;-86
2021/08/10 04:50:07;;;;;;;1.17;0.93;;;14.60;30.50;;;;;;4804419;28;20220;-84
2021/08/10 04:52:31;;;;;;;0.63;0.60;;;14.70;30.20;;;;;;4818823;28;20245;-85
2021/08/10 04:54:56;;;;;;;0.40;0.40;;;;;;;;;;4812676;28;20207;-83
2021/08/10 04:57:21;;;;;;;0.67;0.60;;;;;;;;;;4804163;28;20247;-83
2021/08/10 04:59:43;;;;;;;0.60;0.60;;;14.90;99.90;;;;;;4790251;28;20267;-86
2021/08/10 05:02:06;;;;;;;0.93;0.90;;;13.70;99.90;;;;;;4819210;28;20211;-85
2021/08/10 05:04:29;;;;;;;0.67;0.60;;;15.20;99.90;;;;;;4807650;28;20249;-86
2021/08/10 05:06:53;;;;;;;0.40;0.40;;;15.20;99.90;;;;;;4791241;28;20224;-86
2021/08/10 05:09:19;;;;;;;0.67;0.67;;;15.50;99.90;;;;;;4798739;28;20842;-78
2021/08/10 05:11:43;;;;;;;0.50;0.50;;;;;;;;;;4806467;28;20552;-86
2021/08/10 05:14:06;;;;;;;2.00;1.53;;;;;;;;;;4810865;28;20259;-85
2021/08/10 05:16:28;;;;;;;0.70;0.70;;;15.70;99.90;;;;;;4807312;28;20243;-87
2021/08/10 05:18:51;;;;;;;0.40;0.40;;;;;;;;;;4809737;28;20200;-88
2021/08/10 05:21:16;;;;;;;0.70;0.70;;;;;;;;;;4804755;28;20598;-87
2021/08/10 05:23:43;;;;;;;0.77;0.67;;;;;;;;;;4810814;28;20254;-84
2021/08/10 05:26:06;;;;;;;0.80;0.80;;;16.40;30.20;;;;;;4810462;28;20191;-91
2021/08/10 05:28:35;;;;;;;0.50;0.50;;;;;;;;;;4808195;28;20195;-81
2021/08/10 05:31:01;;;;;;;2.17;1.40;;;;;;;;;;4808632;28;20200;-84
2021/08/10 05:33:23;;;;;;;1.10;0.87;;;17.10;33.30;;;;;;4810855;28;20644;-83
2021/08/10 05:35:46;;;;;;;0.87;0.63;;;;;;;;;;4812802;28;20203;-81
2021/08/10 05:38:09;;;;;;;1.83;1.37;;;;;;;;;;4810797;28;20216;-84
2021/08/10 05:40:35;;;;;;;0.80;0.73;;;17.10;38.80;;;;;;4791419;28;20332;-82
2021/08/10 05:43:01;;;;;;;1.33;0.87;;;17.30;40.00;;;;;;4818356;28;20266;-85
2021/08/10 05:45:24;;;;;;;0.70;0.70;;;;;;;;;;4820049;28;20254;-82
2021/08/10 05:47:47;;;;;;;0.73;0.70;;;;;;;;;;4820230;28;20191;-84
2021/08/10 05:50:10;;;;;;;1.23;1.07;;;17.40;42.10;;;;;;4819613;28;20226;-84
2021/08/10 05:52:33;;;;;;;0.93;0.70;;;17.70;41.90;;;;;;4821119;28;20641;-77
2021/08/10 05:54:56;;;;;;;0.67;0.57;;;;;;;;;;4819959;28;20207;-83
2021/08/10 05:57:19;;;;;;;0.73;0.60;;;;;;;;;;4820479;28;20211;-82
2021/08/10 05:59:44;;;;;;;0.73;0.70;;;17.70;43.40;;;;;;4803773;28;20258;-85
2021/08/10 06:02:07;;;;;;;1.63;1.23;;;;;;;;;;4817722;28;20204;-81
2021/08/10 06:04:29;;;;;;;1.40;0.90;;;;;;;;;;4819735;28;20231;-86
2021/08/10 06:06:53;;;;;;;0.87;0.70;;;;;;;;;;4820441;28;20207;-85
2021/08/10 06:09:16;;;;;;;0.83;0.53;;;;;;;;;;4819121;28;20294;-84
2021/08/10 06:11:39;;;;;;;1.70;1.10;;;;;;;;;;4817770;28;20192;-75
2021/08/10 06:14:04;;;;;;;2.40;1.40;;;18.20;46.40;;;;;;4813037;28;20207;-77
2021/08/10 06:16:30;;;;;;;1.40;0.80;;;17.50;45.60;;;;;;4808276;28;20243;-77
2021/08/10 06:18:59;;;;;;;2.43;1.30;;;;;;;;;;4791874;28;20197;-77
2021/08/10 06:21:23;;;;;;;2.23;1.17;;;;;;;;;;4808023;28;20208;-76
2021/08/10 06:23:46;;;;;;;1.60;0.90;;;;;;;;;;4806146;28;20227;-75
2021/08/10 06:26:09;;;;;;;2.80;1.53;;;;;;;;;;4791652;28;20860;-74
2021/08/10 06:28:31;;;;;;;1.73;0.90;;;;;;;;;;4804512;28;20746;-77
2021/08/10 06:30:56;;;;;;;1.47;0.77;;;;;;;;;;4809371;28;20231;-78
2021/08/10 06:33:20;;;;;;;1.53;1.00;;;18.90;47.40;;;;;;4815890;28;20231;-83
2021/08/10 06:35:44;;;;;;;0.87;0.67;;;;;;;;;;4812746;28;20571;-80
2021/08/10 06:38:06;;;;;;;1.73;1.20;;;;;;;;;;4793641;28;20225;-77
2021/08/10 06:40:34;;;;;;;0.50;0.40;;;;;;;;;;4808529;28;20199;-82
2021/08/10 06:42:57;;;;;;;1.03;0.73;;;;;;;;;;4807034;28;20222;-80
2021/08/10 06:45:20;;;;;;;0.83;0.70;;;;;;;;;;4827041;28;20207;-82
2021/08/10 06:47:43;;;;;;;1.07;0.70;;;;;;;;;;4807412;28;20194;-80
2021/08/10 06:50:09;;;;;;;1.07;0.90;;;19.30;49.10;;;;;;4812079;28;20228;-85
2021/08/10 06:52:32;;;;;;;1.37;1.07;;;;;;;;;;4814336;28;21106;-76
2021/08/10 06:54:55;;;;;;;1.23;0.63;;;;;;;;;;4809727;28;20204;-78
2021/08/10 06:57:18;;;;;;;1.37;1.10;;;;;;;;;;4816868;28;20206;-78
2021/08/10 06:59:41;;;;;;;1.20;0.93;;;20.00;49.40;;;;;;4822774;28;20259;-83
2021/08/10 07:02:08;;;;;;;0.67;0.67;;;19.90;50.20;;;;;;4819105;28;20199;-82
2021/08/10 07:04:32;;;;;;;0.20;0.20;;;;;;;;;;4809935;28;20277;-84
2021/08/10 07:06:57;;;;;;;0.37;0.37;;;20.10;50.60;;;;;;4794918;28;20255;-80
2021/08/10 07:09:21;;;;;;;0.40;0.40;;;;;;;;;;4815372;28;20203;-82
2021/08/10 07:11:46;;;;;;;0.10;0.10;;;;;;;;;;4815802;28;20204;-84
2021/08/10 07:14:11;;;;;;;2.13;1.67;;;;;;;;;;4807952;28;20670;-75
2021/08/10 07:16:34;;;;;;;1.10;1.00;;;;;;;;;;4812675;28;20251;-81
2021/08/10 07:19:02;;;;;;;0.70;0.60;;;;;;;;;;4801801;28;20661;-76
2021/08/10 07:21:27;;;;;;;0.40;0.40;;;;;;;;;;4811333;28;20203;-87
2021/08/10 07:23:56;;;;;;;0.30;0.30;;;20.90;50.90;;;;;;4813216;28;20209;-83
2021/08/10 07:26:20;;;;;;;0.57;0.57;;;21.60;51.40;;;;;;4814894;28;20242;-81
2021/08/10 07:28:48;;;;;;;0.20;0.20;;;;;;;;;;4818135;28;20204;-76
2021/08/10 07:31:11;;;;;;;0.20;0.20;;;21.80;51.60;;;;;;4815044;28;20226;-82
2021/08/10 07:33:33;;;;;;;0.00;0.00;;;;;;;;;;4807021;28;20354;-82
2021/08/10 07:35:58;;;;;;;0.10;0.10;;;22.60;52.00;;;;;;4809134;28;20197;-87
2021/08/10 07:38:22;;;;;;;0.10;0.10;;;;;;;;;;4785850;28;20264;-88
2021/08/10 07:40:46;;;;;;;0.30;0.30;;;22.60;53.00;;;;;;4810261;28;20196;-90
2021/08/10 07:43:09;;;;;;;0.20;0.20;;;;;;;;;;4819298;28;20235;-85
2021/08/10 07:45:35;;;;;;;0.00;0.00;;;22.80;53.80;;;;;;4804824;28;20210;-80
2021/08/10 07:48:03;;;;;;;0.30;0.30;;;23.10;54.10;;;;;;4799140;28;20203;-83
2021/08/10 07:50:29;;;;;;;0.20;0.20;;;22.50;53.60;;;;;;4805425;28;20226;-82
2021/08/10 07:52:52;;;;;;;0.20;0.20;;;;;;;;;;4810188;28;20799;-93
2021/08/10 07:55:15;;;;;;;1.17;0.83;;;;;;;;;;4816904;28;20194;-86
2021/08/10 07:57:42;;;;;;;0.63;0.50;;;22.90;54.20;;;;;;4807474;28;20616;-78
2021/08/10 08:00:06;;;;;;;0.97;0.73;;;23.40;53.90;;;;;;4805232;28;20257;-84
2021/08/10 08:02:36;;;;;;;1.13;0.97;;;23.40;53.90;;;;;;4803768;28;20724;-88
2021/08/10 08:04:58;;;;;;;0.53;0.50;;;22.80;53.80;;;;;;4810394;28;20256;-88
2021/08/10 08:07:21;;;;;;;0.47;0.47;;;;;;;;;;4807400;28;20262;-86
2021/08/10 08:09:44;;;;;;;0.30;0.30;;;23.40;54.60;;;;;;4805813;28;20739;-89
2021/08/10 08:12:08;;;;;;;0.70;0.60;;;;;;;;;;4815099;28;20204;-88
2021/08/10 08:14:33;;;;;;;0.40;0.40;;;23.60;54.70;;;;;;4807510;28;20195;-89
2021/08/10 08:16:56;;;;;;;0.17;0.17;;;;;;;;;;4807570;28;20207;-84
2021/08/10 08:19:20;;;;;;;0.30;0.30;;;;;;;;;;4801122;28;20230;-76
2021/08/10 08:21:44;;;;;;;0.10;0.10;;;24.20;55.00;;;;;;4802511;28;20614;-85
2021/08/10 08:24:07;;;;;;;0.30;0.30;;;;;;;;;;4813443;28;20649;-78
2021/08/10 08:26:30;;;;;;;0.53;0.53;;;24.30;54.70;;;;;;4799189;28;20204;-86
2021/08/10 08:28:57;;;;;;;0.13;0.13;;;;;;;;;;4815043;28;20204;-83
2021/08/10 08:31:23;;;;;;;0.10;0.10;;;24.50;55.30;;;;;;4804496;28;20299;-85
2021/08/10 08:33:48;;;;;;;0.20;0.20;;;;;;;;;;4784632;28;20199;-80
2021/08/10 08:36:11;;;;;;;0.27;0.27;;;24.90;55.30;;;;;;4807362;28;20233;-88
2021/08/10 08:38:34;;;;;;;0.30;0.30;;;;;;;;;;4790539;28;20211;-88
2021/08/10 08:40:58;;;;;;;0.30;0.30;;;;;;;;;;4807537;28;20200;-86
2021/08/10 08:43:22;;;;;;;0.30;0.30;;;24.70;55.50;;;;;;4801563;28;20207;-90
2021/08/10 08:45:46;;;;;;;0.40;0.40;;;;;;;;;;4805242;28;20195;-82
2021/08/10 08:48:14;;;;;;;0.50;0.50;;;24.80;55.80;;;;;;4812200;28;20204;-76
2021/08/10 08:50:38;;;;;;;0.10;0.10;;;24.30;55.20;;;;;;4811879;28;20219;-91
2021/08/10 08:53:03;;;;;;;0.70;0.63;;;25.50;40.80;;;;;;4768400;28;20200;-91
2021/08/10 08:55:27;;;;;;;0.23;0.23;;;;;;;;;;4825917;28;20214;-93
2021/08/10 08:57:50;;;;;;;1.40;0.83;;;25.70;41.50;;;;;;4786848;28;20259;-89
2021/08/10 09:00:14;;;;;;;1.17;0.80;;;25.90;41.40;;;;;;4784254;28;20200;-88
2021/08/10 09:02:37;;;;;;;0.77;0.53;;;;;;;;;;4798351;28;20242;-91
2021/08/10 09:05:02;;;;;;;3.33;1.43;;;26.00;41.70;;;;;;4817338;28;20224;-85
2021/08/10 09:07:29;;;;;;;2.73;1.10;;;26.20;42.20;;;;;;4805804;28;20609;-91
2021/08/10 09:10:05;;;;;;;2.67;0.63;;;26.50;42.30;;;;;;4805864;28;20220;-88
2021/08/10 09:12:40;;;;;;;3.10;0.60;;;26.80;42.40;;;;;;4815138;28;20323;-93
2021/08/10 09:15:05;;;;;;;6.53;1.00;;;;;;;;;;4804677;28;20201;-89
2021/08/10 09:17:31;;;;;;;22.30;13.03;;;;;;;;;;4808174;28;20635;-86
2021/08/10 09:20:02;;;;;;;16.07;2.07;;;;;;;;;;4806586;28;20194;-89
2021/08/10 09:22:31;;;;;;;7.07;1.63;;;29.40;44.80;;;;;;4809136;28;20203;-92
2021/08/10 09:25:14;;;;;;;27.87;3.70;;;30.80;45.30;;;;;;4817431;28;20193;-80
2021/08/10 09:27:39;;;;;;;19.73;4.17;;;32.40;46.70;;;;;;4781376;28;20747;-89
2021/08/10 09:30:08;;;;;;;44.43;38.27;;;33.70;48.20;;;;;;4799560;28;20739;-88
2021/08/10 09:32:31;;;;;;;22.38;2.72;;;;;;;;;;4808448;28;21772;-83
2021/08/10 09:35:10;;;;;;;5.28;0.80;;;37.10;50.10;;;;;;4803055;28;20195;-83
2021/08/10 09:37:34;;;;;;;10.60;1.45;;;38.20;50.50;;;;;;4792592;28;20199;-78
2021/08/10 09:39:57;;;;;;;20.65;2.67;;;;;;;;;;4801064;28;20234;-76
2021/08/10 09:42:26;;;;;;;9.27;1.27;;;39.70;50.20;;;;;;4789855;28;20204;-85
2021/08/10 09:45:02;;;;;;;10.70;1.50;;;40.90;51.90;;;;;;4813230;28;20230;-74
2021/08/10 09:47:36;;;;;;;12.20;1.55;;;41.60;52.20;;;;;;4805229;28;20271;-74
2021/08/10 09:50:00;;;;;;;20.83;2.60;;;42.00;52.60;;;;;;4789719;28;20193;-76
2021/08/10 09:52:28;;;;;;;9.45;1.30;;;42.50;51.70;;;;;;4806255;28;20227;-82
2021/08/10 09:54:53;;;;;;;10.88;1.42;;;42.90;52.90;;;;;;4803488;28;20226;-75
2021/08/10 09:57:16;;;;;;;17.55;8.63;;;;;;;;;;4807410;28;20183;-75
2021/08/10 09:59:42;;;;;;;13.77;1.92;;;44.00;53.40;;;;;;4801660;28;20242;-74
2021/08/10 10:02:18;;;;;;;28.73;3.53;;;44.90;53.70;;;;;;4821166;28;20206;-74
2021/08/10 10:04:41;;;;;;;14.30;1.92;;;;;;;;;;4808967;28;20227;-77
2021/08/10 10:07:12;;;;;;;17.55;2.33;;;45.50;53.80;;;;;;4791456;28;20219;-81
2021/08/10 10:10:07;;;;;;;25.52;3.38;;;45.60;54.00;;;;;;4800816;28;20223;-76
2021/08/10 10:12:38;;;;;;;21.08;2.90;;;46.20;54.20;;;;;;4802753;28;20226;-79
2021/08/10 10:15:01;;;;;;;20.33;2.78;;;45.60;54.00;;;;;;4815391;28;20265;-87
2021/08/10 10:17:25;;;;;;;14.90;2.17;;;45.20;53.90;;;;;;4810886;28;20195;-80
2021/08/10 10:19:48;;;;;;;11.18;1.60;;;;;;;;;;4831948;28;20194;-81
2021/08/10 10:22:16;;;;;;;19.77;2.67;;;46.40;54.20;;;;;;4810854;28;20225;-75
2021/08/10 10:24:40;;;;;;;14.05;2.00;;;47.20;54.60;;;;;;4812248;28;20203;-83
2021/08/10 10:27:07;;;;;;;17.13;2.45;;;47.10;54.60;;;;;;4815931;28;20618;-78
2021/08/10 10:29:30;;;;;;;16.00;2.35;;;;;;;;;;4811565;28;20192;-94
2021/08/10 10:31:53;;;;;;;8.77;1.35;;;46.50;54.50;;;;;;4805597;28;20649;-82
2021/08/10 10:34:16;;;;;;;13.82;2.05;;;;;;;;;;4807572;28;20207;-83
2021/08/10 10:36:40;;;;;;;13.50;2.08;;;44.50;52.90;;;;;;4788324;28;20381;-88
2021/08/10 10:39:07;;;;;;;11.25;1.63;;;45.20;54.00;;;;;;4814730;28;20203;-82
2021/08/10 10:41:35;;;;;;;9.23;1.40;;;45.90;53.50;;;;;;4810883;28;20262;-91
2021/08/10 10:43:59;;;;;;;11.35;1.70;;;47.30;54.60;;;;;;4808230;28;20191;-78
2021/08/10 10:46:28;;;;;;;25.73;3.78;;;48.40;55.10;;;;;;4815057;28;20200;-78
2021/08/10 10:48:51;;;;;;;14.95;2.20;;;;;;;;;;4815493;28;20195;-75
2021/08/10 10:51:15;;;;;;;14.48;2.13;;;49.00;55.40;;;;;;4809501;28;20717;-87
2021/08/10 10:53:38;;;;;;;11.43;1.77;;;;;;;;;;4813432;28;20633;-86
2021/08/10 10:56:01;;;;;;;23.63;3.22;;;;;;;;;;4804705;28;20204;-90
2021/08/10 10:58:28;;;;;;;11.82;1.83;;;50.60;55.90;;;;;;4801066;28;20345;-82
2021/08/10 11:01:30;;;;;;;9.27;1.50;;;50.50;55.90;;;;;;4805869;28;20687;-88
2021/08/10 11:04:12;;;;;;;9.68;1.50;;;49.70;55.80;;;;;;4794777;28;20724;-80
2021/08/10 11:06:35;;;;;;;37.67;5.22;;;48.50;55.30;;;;;;4809676;28;20219;-77
2021/08/10 11:08:58;;;;;;;13.70;2.00;;;;;;;;;;4815345;28;20239;-78
2021/08/10 11:11:46;;;;;;;14.02;2.13;;;49.90;55.80;;;;;;4807148;28;20235;-78
2021/08/10 11:14:49;;;;;;;13.40;2.00;;;50.40;56.00;;;;;;4809317;28;20195;-92
2021/08/10 11:17:12;;;;;;;25.15;3.50;;;50.30;55.90;;;;;;4800981;28;20191;-88
2021/08/10 11:19:37;;;;;;;10.40;1.63;;;50.90;56.10;;;;;;4815673;28;20721;-83
2021/08/10 11:22:25;;;;;;;15.43;2.30;;;50.90;56.10;;;;;;4806970;28;20212;-81
2021/08/10 11:24:51;;;;;;;10.15;1.55;;;50.20;56.00;;;;;;4805819;28;20233;-84
2021/08/10 11:27:32;;;;;;;13.27;2.05;;;49.90;55.90;;;;;;4812750;28;20199;-79
2021/08/10 11:29:56;;;;;;;14.25;2.15;;;;;;;;;;4806084;28;20211;-82
2021/08/10 11:32:38;;;;;;;12.38;1.83;;;49.50;55.70;;;;;;4812126;28;20187;-85
2021/08/10 11:35:28;;;;;;;17.23;2.50;;;49.30;55.70;;;;;;4795521;28;20222;-84
2021/08/10 11:38:06;;;;;;;10.35;1.63;;;46.70;54.80;;;;;;4809043;28;20194;-80
2021/08/10 11:40:36;;;;;;;9.45;1.40;;;;;;;;;;4806832;28;20207;-88
2021/08/10 11:42:58;;;;;;;13.25;1.98;;;;;;;;;;4812241;28;20727;-87
2021/08/10 11:45:21;;;;;;;11.43;1.75;;;;;;;;;;4808769;28;20564;-88
2021/08/10 11:47:57;;;;;;;9.88;1.50;;;47.50;55.00;;;;;;4810580;28;20218;-83
2021/08/10 11:50:27;;;;;;;14.68;2.13;;;47.40;55.10;;;;;;4812471;28;20737;-80
2021/08/10 11:52:51;;;;;;;11.73;1.65;;;;;;;;;;4808278;28;20214;-79
2021/08/10 11:55:14;;;;;;;11.65;1.70;;;;;;;;;;4814687;28;20191;-82
2021/08/10 11:57:37;;;;;;;9.93;1.48;;;;;;;;;;4807715;28;20202;-86
2021/08/10 12:00:12;;;;;;;18.25;2.55;;;50.70;56.10;;;;;;4813282;28;20245;-94
2021/08/10 12:02:43;;;;;;;13.43;2.10;;;51.20;56.30;;;;;;4799591;28;20206;-95
2021/08/10 12:05:08;;;;;;;17.38;2.58;;;50.90;55.80;;;;;;4812973;28;20215;-87
2021/08/10 12:07:32;;;;;;;11.77;1.85;;;51.30;56.50;;;;;;4805169;28;20677;-86
2021/08/10 12:10:03;;;;;;;10.63;1.73;;;51.50;56.40;;;;;;4807000;28;20644;-82
2021/08/10 12:12:35;;;;;;;17.38;2.65;;;51.10;56.30;;;;;;4817876;28;20187;-90
2021/08/10 12:14:57;;;;;;;6.05;1.10;;;;;;;;;;4801750;28;20631;-87
2021/08/10 12:17:20;;;;;;;11.93;1.95;;;;;;;;;;4823475;28;20213;-81
2021/08/10 12:19:44;;;;;;;11.00;1.90;;;52.70;56.20;;;;;;4814751;28;20203;-88
2021/08/10 12:22:09;;;;;;;18.23;2.95;;;52.50;56.80;;;;;;4817251;28;20215;-82
2021/08/10 12:24:37;;;;;;;13.07;2.17;;;53.00;57.10;;;;;;4816382;28;20673;-80
2021/08/10 12:27:01;;;;;;;14.07;2.47;;;;;;;;;;4816405;28;20229;-81
2021/08/10 12:29:32;;;;;;;9.40;1.73;;;53.30;57.10;;;;;;4816753;28;20211;-88
2021/08/10 12:31:56;;;;;;;8.30;1.55;;;;;;;;;;4818140;28;20190;-84
2021/08/10 12:34:29;;;;;;;7.88;1.48;;;52.10;56.70;;;;;;4817499;28;20179;-91
2021/08/10 12:36:52;;;;;;;9.88;1.85;;;;;;;;;;4824327;28;20221;-82
2021/08/10 12:39:15;;;;;;;15.27;2.65;;;;;;;;;;4817962;28;20665;-87
2021/08/10 12:41:39;;;;;;;8.93;1.67;;;50.90;56.40;;;;;;4835966;28;20593;-82
2021/08/10 12:44:02;;;;;;;19.42;3.47;;;;;;;;;;4835691;28;20182;-83
2021/08/10 12:46:29;;;;;;;20.95;3.70;;;51.00;56.10;;;;;;4834572;28;20256;-88
2021/08/10 12:49:10;;;;;;;7.78;1.52;;;51.80;56.50;;;;;;4837349;28;20182;-81
2021/08/10 12:51:58;;;;;;;9.32;1.88;;;52.80;56.80;;;;;;4835389;28;20205;-77
2021/08/10 12:54:22;;;;;;;9.07;1.83;;;51.10;56.40;;;;;;4811882;28;20606;-79
2021/08/10 12:56:46;;;;;;;9.65;1.92;;;51.00;56.40;;;;;;4796001;28;20188;-80
2021/08/10 12:59:09;;;;;;;10.80;2.17;;;;;;;;;;4799069;28;20187;-81
2021/08/10 13:01:39;;;;;;;8.68;1.80;;;46.70;54.80;;;;;;4796959;28;20661;-79
2021/08/10 13:04:06;;;;;;;11.45;2.25;;;44.70;54.30;;;;;;4799973;28;20277;-86
2021/08/10 13:06:29;;;;;;;18.00;3.42;;;43.60;53.50;;;;;;4798292;28;20779;-94
2021/08/10 13:08:55;;;;;;;10.30;2.05;;;44.30;53.30;;;;;;4799460;28;20258;-79
2021/08/10 13:11:22;;;;;;;10.65;2.05;;;45.40;54.10;;;;;;4798239;28;20251;-79
2021/08/10 13:13:46;;;;;;;9.68;1.85;;;46.90;54.90;;;;;;4798864;28;20256;-83
2021/08/10 13:16:09;;;;;;;11.82;2.40;;;;;;;;;;4798555;28;20239;-80
2021/08/10 13:18:33;;;;;;;9.10;1.95;;;47.80;55.30;;;;;;4795936;28;20200;-79
2021/08/10 13:20:58;;;;;;;6.90;1.50;;;47.80;55.20;;;;;;4797584;28;20196;-83